sensor_id;sensor_type;location;lat;lon;timestamp;P1;durP1;ratioP1;P2;durP2;ratioP2
4806;SDS011;2417;52.482;13.432;2022-09-09T00:00:40;20.70;;;14.50;;
4806;SDS011;2417;52.482;13.432;2022-09-09T00:03:12;23.80;;;14.50;;
4806;SDS011;2417;52.482;13.432;2022-09-09T00:05:43;18.67;;;13.27;;
4806;SDS011;2417;52.482;13.432;2022-09-09T00:08:13;18.80;;;14.30;;
4806;SDS011;2417;52.482;13.432;2022-09-09T00:10:44;23.00;;;16.00;;
4806;SDS011;2417;52.482;13.432;2022-09-09T00:13:15;23.47;;;15.63;;
4806;SDS011;2417;52.482;13.432;2022-09-09T00:15:46;21.80;;;15.50;;
4806;SDS011;2417;52.482;13.432;2022-09-09T00:18:20;24.97;;;15.80;;
4806;SDS011;2417;52.482;13.432;2022-09-09T00:20:52;21.50;;;14.70;;
4806;SDS011;2417;52.482;13.432;2022-09-09T00:23:24;19.63;;;14.40;;
4806;SDS011;2417;52.482;13.432;2022-09-09T00:25:54;26.00;;;15.13;;
4806;SDS011;2417;52.482;13.432;2022-09-09T00:28:26;17.93;;;14.13;;
4806;SDS011;2417;52.482;13.432;2022-09-09T00:30:59;21.30;;;14.00;;
4806;SDS011;2417;52.482;13.432;2022-09-09T00:33:30;23.03;;;15.40;;
4806;SDS011;2417;52.482;13.432;2022-09-09T00:35:59;21.43;;;15.67;;
4806;SDS011;2417;52.482;13.432;2022-09-09T00:38:28;21.40;;;14.83;;
4806;SDS011;2417;52.482;13.432;2022-09-09T00:41:00;18.27;;;14.33;;
4806;SDS011;2417;52.482;13.432;2022-09-09T00:43:31;30.73;;;19.17;;
4806;SDS011;2417;52.482;13.432;2022-09-09T00:46:09;22.80;;;16.90;;
4806;SDS011;2417;52.482;13.432;2022-09-09T00:48:41;22.33;;;15.00;;
4806;SDS011;2417;52.482;13.432;2022-09-09T00:51:14;20.70;;;15.17;;
4806;SDS011;2417;52.482;13.432;2022-09-09T00:53:54;25.47;;;17.13;;
4806;SDS011;2417;52.482;13.432;2022-09-09T00:56:26;20.70;;;15.43;;
4806;SDS011;2417;52.482;13.432;2022-09-09T00:58:58;20.20;;;14.93;;
4806;SDS011;2417;52.482;13.432;2022-09-09T01:01:28;21.30;;;16.17;;
4806;SDS011;2417;52.482;13.432;2022-09-09T01:03:57;21.40;;;14.53;;
4806;SDS011;2417;52.482;13.432;2022-09-09T01:06:27;19.67;;;14.43;;
4806;SDS011;2417;52.482;13.432;2022-09-09T01:09:00;19.43;;;15.03;;
4806;SDS011;2417;52.482;13.432;2022-09-09T01:11:32;17.40;;;12.70;;
4806;SDS011;2417;52.482;13.432;2022-09-09T01:14:03;19.27;;;14.30;;
4806;SDS011;2417;52.482;13.432;2022-09-09T01:16:37;21.27;;;14.00;;
4806;SDS011;2417;52.482;13.432;2022-09-09T01:19:07;20.17;;;14.63;;
4806;SDS011;2417;52.482;13.432;2022-09-09T01:21:39;18.30;;;14.40;;
4806;SDS011;2417;52.482;13.432;2022-09-09T01:24:22;20.73;;;14.73;;
4806;SDS011;2417;52.482;13.432;2022-09-09T01:27:12;21.87;;;14.83;;
4806;SDS011;2417;52.482;13.432;2022-09-09T01:29:41;22.00;;;14.27;;
4806;SDS011;2417;52.482;13.432;2022-09-09T01:34:56;19.33;;;13.00;;
4806;SDS011;2417;52.482;13.432;2022-09-09T01:37:24;20.03;;;13.63;;
4806;SDS011;2417;52.482;13.432;2022-09-09T01:39:52;18.77;;;13.57;;
4806;SDS011;2417;52.482;13.432;2022-09-09T01:42:21;18.23;;;13.60;;
4806;SDS011;2417;52.482;13.432;2022-09-09T01:44:49;21.63;;;13.17;;
4806;SDS011;2417;52.482;13.432;2022-09-09T01:47:17;18.80;;;12.97;;
4806;SDS011;2417;52.482;13.432;2022-09-09T01:50:05;18.63;;;13.27;;
4806;SDS011;2417;52.482;13.432;2022-09-09T01:52:34;17.53;;;12.80;;
4806;SDS011;2417;52.482;13.432;2022-09-09T01:55:07;20.50;;;13.80;;
4806;SDS011;2417;52.482;13.432;2022-09-09T01:57:41;19.57;;;13.50;;
4806;SDS011;2417;52.482;13.432;2022-09-09T02:00:12;18.63;;;13.83;;
4806;SDS011;2417;52.482;13.432;2022-09-09T02:02:43;20.13;;;13.13;;
4806;SDS011;2417;52.482;13.432;2022-09-09T02:05:20;24.03;;;13.70;;
4806;SDS011;2417;52.482;13.432;2022-09-09T02:07:55;20.30;;;13.77;;
4806;SDS011;2417;52.482;13.432;2022-09-09T02:10:35;20.10;;;14.07;;
4806;SDS011;2417;52.482;13.432;2022-09-09T02:13:19;20.13;;;14.50;;
4806;SDS011;2417;52.482;13.432;2022-09-09T02:15:49;22.03;;;13.40;;
4806;SDS011;2417;52.482;13.432;2022-09-09T02:18:18;20.73;;;14.50;;
4806;SDS011;2417;52.482;13.432;2022-09-09T02:20:50;17.37;;;12.67;;
4806;SDS011;2417;52.482;13.432;2022-09-09T02:23:19;18.97;;;13.10;;
4806;SDS011;2417;52.482;13.432;2022-09-09T02:25:50;20.77;;;12.80;;
4806;SDS011;2417;52.482;13.432;2022-09-09T02:28:23;20.10;;;13.63;;
4806;SDS011;2417;52.482;13.432;2022-09-09T02:30:52;19.40;;;13.43;;
4806;SDS011;2417;52.482;13.432;2022-09-09T02:33:29;23.20;;;14.43;;
4806;SDS011;2417;52.482;13.432;2022-09-09T02:35:58;20.83;;;13.97;;
4806;SDS011;2417;52.482;13.432;2022-09-09T02:38:32;21.37;;;15.10;;
4806;SDS011;2417;52.482;13.432;2022-09-09T02:41:08;18.50;;;13.20;;
4806;SDS011;2417;52.482;13.432;2022-09-09T02:43:37;22.30;;;14.00;;
4806;SDS011;2417;52.482;13.432;2022-09-09T02:46:13;20.17;;;13.90;;
4806;SDS011;2417;52.482;13.432;2022-09-09T02:48:47;19.93;;;13.90;;
4806;SDS011;2417;52.482;13.432;2022-09-09T02:51:21;25.67;;;13.70;;
4806;SDS011;2417;52.482;13.432;2022-09-09T02:53:54;22.57;;;13.97;;
4806;SDS011;2417;52.482;13.432;2022-09-09T02:56:25;19.60;;;13.50;;
4806;SDS011;2417;52.482;13.432;2022-09-09T02:58:57;20.20;;;14.80;;
4806;SDS011;2417;52.482;13.432;2022-09-09T03:01:25;18.87;;;13.70;;
4806;SDS011;2417;52.482;13.432;2022-09-09T03:04:17;21.10;;;14.23;;
4806;SDS011;2417;52.482;13.432;2022-09-09T03:06:46;19.27;;;13.03;;
4806;SDS011;2417;52.482;13.432;2022-09-09T03:09:18;19.80;;;14.20;;
4806;SDS011;2417;52.482;13.432;2022-09-09T03:11:46;21.47;;;14.77;;
4806;SDS011;2417;52.482;13.432;2022-09-09T03:14:16;20.73;;;14.33;;
4806;SDS011;2417;52.482;13.432;2022-09-09T03:16:48;19.40;;;14.43;;
4806;SDS011;2417;52.482;13.432;2022-09-09T03:19:16;21.40;;;14.80;;
4806;SDS011;2417;52.482;13.432;2022-09-09T03:21:45;20.00;;;14.33;;
4806;SDS011;2417;52.482;13.432;2022-09-09T03:24:13;23.50;;;13.80;;
4806;SDS011;2417;52.482;13.432;2022-09-09T03:26:40;18.10;;;12.43;;
4806;SDS011;2417;52.482;13.432;2022-09-09T03:29:13;23.00;;;13.77;;
4806;SDS011;2417;52.482;13.432;2022-09-09T03:31:44;19.10;;;13.70;;
4806;SDS011;2417;52.482;13.432;2022-09-09T03:34:11;17.97;;;13.53;;
4806;SDS011;2417;52.482;13.432;2022-09-09T03:36:40;16.80;;;12.60;;
4806;SDS011;2417;52.482;13.432;2022-09-09T03:39:08;19.20;;;13.70;;
4806;SDS011;2417;52.482;13.432;2022-09-09T03:41:40;22.80;;;12.87;;
4806;SDS011;2417;52.482;13.432;2022-09-09T03:44:08;18.70;;;12.37;;
4806;SDS011;2417;52.482;13.432;2022-09-09T03:46:38;17.47;;;12.50;;
4806;SDS011;2417;52.482;13.432;2022-09-09T03:49:08;30.23;;;12.67;;
4806;SDS011;2417;52.482;13.432;2022-09-09T03:51:36;17.13;;;12.30;;
4806;SDS011;2417;52.482;13.432;2022-09-09T03:54:05;15.37;;;11.67;;
4806;SDS011;2417;52.482;13.432;2022-09-09T03:56:36;17.00;;;11.87;;
4806;SDS011;2417;52.482;13.432;2022-09-09T03:59:04;16.73;;;12.23;;
4806;SDS011;2417;52.482;13.432;2022-09-09T04:01:32;16.70;;;10.67;;
4806;SDS011;2417;52.482;13.432;2022-09-09T04:04:00;15.47;;;11.30;;
4806;SDS011;2417;52.482;13.432;2022-09-09T04:06:30;13.70;;;9.67;;
4806;SDS011;2417;52.482;13.432;2022-09-09T04:08:58;21.53;;;11.87;;
4806;SDS011;2417;52.482;13.432;2022-09-09T04:11:26;15.87;;;10.70;;
4806;SDS011;2417;52.482;13.432;2022-09-09T04:13:56;19.30;;;11.40;;
4806;SDS011;2417;52.482;13.432;2022-09-09T04:16:24;17.27;;;11.00;;
4806;SDS011;2417;52.482;13.432;2022-09-09T04:18:52;21.87;;;10.50;;
4806;SDS011;2417;52.482;13.432;2022-09-09T04:21:20;16.47;;;10.10;;
4806;SDS011;2417;52.482;13.432;2022-09-09T04:23:50;18.30;;;10.90;;
4806;SDS011;2417;52.482;13.432;2022-09-09T04:26:18;15.50;;;9.03;;
4806;SDS011;2417;52.482;13.432;2022-09-09T04:28:46;16.10;;;11.20;;
4806;SDS011;2417;52.482;13.432;2022-09-09T04:31:18;20.50;;;11.60;;
4806;SDS011;2417;52.482;13.432;2022-09-09T04:33:49;15.93;;;9.63;;
4806;SDS011;2417;52.482;13.432;2022-09-09T04:36:17;14.73;;;10.10;;
4806;SDS011;2417;52.482;13.432;2022-09-09T04:38:47;15.83;;;10.50;;
4806;SDS011;2417;52.482;13.432;2022-09-09T04:41:17;13.83;;;10.53;;
4806;SDS011;2417;52.482;13.432;2022-09-09T04:43:48;18.07;;;10.07;;
4806;SDS011;2417;52.482;13.432;2022-09-09T04:46:16;17.73;;;9.50;;
4806;SDS011;2417;52.482;13.432;2022-09-09T04:48:46;17.63;;;9.90;;
4806;SDS011;2417;52.482;13.432;2022-09-09T04:51:15;16.87;;;11.03;;
4806;SDS011;2417;52.482;13.432;2022-09-09T04:53:46;15.43;;;10.20;;
4806;SDS011;2417;52.482;13.432;2022-09-09T04:56:16;17.40;;;11.13;;
4806;SDS011;2417;52.482;13.432;2022-09-09T04:58:52;17.90;;;10.47;;
4806;SDS011;2417;52.482;13.432;2022-09-09T05:01:23;13.50;;;9.80;;
4806;SDS011;2417;52.482;13.432;2022-09-09T05:03:54;16.07;;;10.80;;
4806;SDS011;2417;52.482;13.432;2022-09-09T05:06:22;15.30;;;10.07;;
4806;SDS011;2417;52.482;13.432;2022-09-09T05:09:12;15.67;;;10.20;;
4806;SDS011;2417;52.482;13.432;2022-09-09T05:11:40;11.83;;;8.60;;
4806;SDS011;2417;52.482;13.432;2022-09-09T05:14:16;11.87;;;8.47;;
4806;SDS011;2417;52.482;13.432;2022-09-09T05:16:44;16.33;;;9.40;;
4806;SDS011;2417;52.482;13.432;2022-09-09T05:19:13;14.33;;;8.90;;
4806;SDS011;2417;52.482;13.432;2022-09-09T05:21:44;12.43;;;9.10;;
4806;SDS011;2417;52.482;13.432;2022-09-09T05:24:15;19.80;;;8.50;;
4806;SDS011;2417;52.482;13.432;2022-09-09T05:26:45;14.30;;;8.63;;
4806;SDS011;2417;52.482;13.432;2022-09-09T05:29:12;15.70;;;7.80;;
4806;SDS011;2417;52.482;13.432;2022-09-09T05:31:42;14.20;;;7.57;;
4806;SDS011;2417;52.482;13.432;2022-09-09T05:34:13;11.57;;;7.67;;
4806;SDS011;2417;52.482;13.432;2022-09-09T05:36:42;15.53;;;7.90;;
4806;SDS011;2417;52.482;13.432;2022-09-09T05:39:11;11.40;;;7.83;;
4806;SDS011;2417;52.482;13.432;2022-09-09T05:41:39;20.30;;;7.83;;
4806;SDS011;2417;52.482;13.432;2022-09-09T05:44:07;18.50;;;7.80;;
4806;SDS011;2417;52.482;13.432;2022-09-09T05:46:37;12.20;;;8.40;;
4806;SDS011;2417;52.482;13.432;2022-09-09T05:49:07;13.50;;;8.70;;
4806;SDS011;2417;52.482;13.432;2022-09-09T05:51:35;13.90;;;7.57;;
4806;SDS011;2417;52.482;13.432;2022-09-09T05:54:08;11.03;;;7.30;;
4806;SDS011;2417;52.482;13.432;2022-09-09T05:56:41;15.90;;;7.40;;
4806;SDS011;2417;52.482;13.432;2022-09-09T05:59:09;12.43;;;6.33;;
4806;SDS011;2417;52.482;13.432;2022-09-09T06:01:38;13.00;;;6.37;;
4806;SDS011;2417;52.482;13.432;2022-09-09T06:04:11;14.07;;;6.00;;
4806;SDS011;2417;52.482;13.432;2022-09-09T06:06:39;13.50;;;6.00;;
4806;SDS011;2417;52.482;13.432;2022-09-09T06:09:14;14.17;;;5.40;;
4806;SDS011;2417;52.482;13.432;2022-09-09T06:11:42;11.83;;;5.43;;
4806;SDS011;2417;52.482;13.432;2022-09-09T06:14:11;9.90;;;4.80;;
4806;SDS011;2417;52.482;13.432;2022-09-09T06:16:39;9.60;;;4.50;;
4806;SDS011;2417;52.482;13.432;2022-09-09T06:19:19;7.17;;;4.57;;
4806;SDS011;2417;52.482;13.432;2022-09-09T06:21:47;9.63;;;4.00;;
4806;SDS011;2417;52.482;13.432;2022-09-09T06:24:17;7.37;;;4.40;;
4806;SDS011;2417;52.482;13.432;2022-09-09T06:26:45;7.20;;;4.47;;
4806;SDS011;2417;52.482;13.432;2022-09-09T06:29:19;14.43;;;3.57;;
4806;SDS011;2417;52.482;13.432;2022-09-09T06:31:47;8.50;;;4.00;;
4806;SDS011;2417;52.482;13.432;2022-09-09T06:34:20;9.33;;;4.03;;
4806;SDS011;2417;52.482;13.432;2022-09-09T06:36:52;9.57;;;3.70;;
4806;SDS011;2417;52.482;13.432;2022-09-09T06:39:20;11.17;;;4.10;;
4806;SDS011;2417;52.482;13.432;2022-09-09T06:41:48;15.10;;;3.80;;
4806;SDS011;2417;52.482;13.432;2022-09-09T06:44:37;9.97;;;3.70;;
4806;SDS011;2417;52.482;13.432;2022-09-09T06:47:09;8.57;;;4.33;;
4806;SDS011;2417;52.482;13.432;2022-09-09T06:49:41;15.93;;;4.20;;
4806;SDS011;2417;52.482;13.432;2022-09-09T06:52:15;8.70;;;4.00;;
4806;SDS011;2417;52.482;13.432;2022-09-09T06:54:45;7.50;;;3.67;;
4806;SDS011;2417;52.482;13.432;2022-09-09T06:57:14;8.37;;;3.20;;
4806;SDS011;2417;52.482;13.432;2022-09-09T07:00:02;6.10;;;3.00;;
4806;SDS011;2417;52.482;13.432;2022-09-09T07:02:30;9.53;;;3.70;;
4806;SDS011;2417;52.482;13.432;2022-09-09T07:05:00;7.93;;;3.30;;
4806;SDS011;2417;52.482;13.432;2022-09-09T07:07:28;5.17;;;2.87;;
4806;SDS011;2417;52.482;13.432;2022-09-09T07:09:57;7.40;;;3.07;;
4806;SDS011;2417;52.482;13.432;2022-09-09T07:12:25;6.20;;;2.50;;
4806;SDS011;2417;52.482;13.432;2022-09-09T07:14:57;7.70;;;3.70;;
4806;SDS011;2417;52.482;13.432;2022-09-09T07:17:25;9.73;;;3.00;;
4806;SDS011;2417;52.482;13.432;2022-09-09T07:19:54;9.83;;;2.90;;
4806;SDS011;2417;52.482;13.432;2022-09-09T07:22:24;10.33;;;3.47;;
4806;SDS011;2417;52.482;13.432;2022-09-09T07:24:52;17.10;;;7.57;;
4806;SDS011;2417;52.482;13.432;2022-09-09T07:27:20;8.27;;;3.47;;
4806;SDS011;2417;52.482;13.432;2022-09-09T07:29:49;9.50;;;5.40;;
4806;SDS011;2417;52.482;13.432;2022-09-09T07:32:17;7.50;;;4.03;;
4806;SDS011;2417;52.482;13.432;2022-09-09T07:34:46;15.80;;;8.37;;
4806;SDS011;2417;52.482;13.432;2022-09-09T07:37:14;13.40;;;3.70;;
4806;SDS011;2417;52.482;13.432;2022-09-09T07:39:44;7.77;;;3.97;;
4806;SDS011;2417;52.482;13.432;2022-09-09T07:42:13;6.07;;;2.77;;
4806;SDS011;2417;52.482;13.432;2022-09-09T07:44:41;10.77;;;5.40;;
4806;SDS011;2417;52.482;13.432;2022-09-09T07:47:12;5.90;;;2.80;;
4806;SDS011;2417;52.482;13.432;2022-09-09T07:49:44;9.10;;;2.73;;
4806;SDS011;2417;52.482;13.432;2022-09-09T07:52:15;6.77;;;3.33;;
4806;SDS011;2417;52.482;13.432;2022-09-09T07:54:51;9.77;;;2.77;;
4806;SDS011;2417;52.482;13.432;2022-09-09T07:57:19;7.03;;;2.50;;
4806;SDS011;2417;52.482;13.432;2022-09-09T07:59:49;5.73;;;2.27;;
4806;SDS011;2417;52.482;13.432;2022-09-09T08:02:19;15.77;;;4.17;;
4806;SDS011;2417;52.482;13.432;2022-09-09T08:04:46;5.67;;;2.30;;
4806;SDS011;2417;52.482;13.432;2022-09-09T08:07:16;5.70;;;2.17;;
4806;SDS011;2417;52.482;13.432;2022-09-09T08:09:49;9.50;;;2.20;;
4806;SDS011;2417;52.482;13.432;2022-09-09T08:12:23;6.37;;;2.27;;
4806;SDS011;2417;52.482;13.432;2022-09-09T08:14:51;7.20;;;2.77;;
4806;SDS011;2417;52.482;13.432;2022-09-09T08:17:23;7.57;;;2.37;;
4806;SDS011;2417;52.482;13.432;2022-09-09T08:19:51;7.17;;;2.13;;
4806;SDS011;2417;52.482;13.432;2022-09-09T08:22:23;9.67;;;2.40;;
4806;SDS011;2417;52.482;13.432;2022-09-09T08:24:54;7.60;;;2.60;;
4806;SDS011;2417;52.482;13.432;2022-09-09T08:27:24;6.97;;;2.63;;
4806;SDS011;2417;52.482;13.432;2022-09-09T08:29:53;9.67;;;3.23;;
4806;SDS011;2417;52.482;13.432;2022-09-09T08:32:22;11.07;;;3.20;;
4806;SDS011;2417;52.482;13.432;2022-09-09T08:34:51;7.30;;;3.10;;
4806;SDS011;2417;52.482;13.432;2022-09-09T08:37:22;9.27;;;2.80;;
4806;SDS011;2417;52.482;13.432;2022-09-09T08:39:49;10.97;;;3.00;;
4806;SDS011;2417;52.482;13.432;2022-09-09T08:42:33;10.43;;;3.80;;
4806;SDS011;2417;52.482;13.432;2022-09-09T08:45:12;8.93;;;2.77;;
4806;SDS011;2417;52.482;13.432;2022-09-09T08:47:44;7.67;;;2.47;;
4806;SDS011;2417;52.482;13.432;2022-09-09T08:50:19;8.10;;;3.40;;
4806;SDS011;2417;52.482;13.432;2022-09-09T08:52:55;8.57;;;3.00;;
4806;SDS011;2417;52.482;13.432;2022-09-09T08:55:25;9.33;;;2.83;;
4806;SDS011;2417;52.482;13.432;2022-09-09T08:57:57;10.30;;;4.10;;
4806;SDS011;2417;52.482;13.432;2022-09-09T09:00:29;13.17;;;3.17;;
4806;SDS011;2417;52.482;13.432;2022-09-09T09:03:00;11.10;;;3.20;;
4806;SDS011;2417;52.482;13.432;2022-09-09T09:05:35;6.80;;;3.00;;
4806;SDS011;2417;52.482;13.432;2022-09-09T09:08:07;15.23;;;4.00;;
4806;SDS011;2417;52.482;13.432;2022-09-09T09:10:43;8.60;;;2.83;;
4806;SDS011;2417;52.482;13.432;2022-09-09T09:13:19;12.23;;;4.90;;
4806;SDS011;2417;52.482;13.432;2022-09-09T09:15:52;8.47;;;2.90;;
4806;SDS011;2417;52.482;13.432;2022-09-09T09:18:21;5.57;;;2.37;;
4806;SDS011;2417;52.482;13.432;2022-09-09T09:20:50;10.77;;;3.40;;
4806;SDS011;2417;52.482;13.432;2022-09-09T09:23:22;9.67;;;2.47;;
4806;SDS011;2417;52.482;13.432;2022-09-09T09:25:54;7.37;;;2.37;;
4806;SDS011;2417;52.482;13.432;2022-09-09T09:28:26;10.37;;;2.97;;
4806;SDS011;2417;52.482;13.432;2022-09-09T09:31:01;7.13;;;2.40;;
4806;SDS011;2417;52.482;13.432;2022-09-09T09:33:33;9.60;;;2.33;;
4806;SDS011;2417;52.482;13.432;2022-09-09T09:36:04;6.33;;;2.30;;
4806;SDS011;2417;52.482;13.432;2022-09-09T09:38:36;11.47;;;4.40;;
4806;SDS011;2417;52.482;13.432;2022-09-09T09:41:32;7.93;;;3.03;;
4806;SDS011;2417;52.482;13.432;2022-09-09T09:44:02;5.27;;;2.03;;
4806;SDS011;2417;52.482;13.432;2022-09-09T09:46:31;6.17;;;1.97;;
4806;SDS011;2417;52.482;13.432;2022-09-09T09:49:08;7.13;;;2.90;;
4806;SDS011;2417;52.482;13.432;2022-09-09T09:51:38;12.30;;;4.50;;
4806;SDS011;2417;52.482;13.432;2022-09-09T09:54:14;7.27;;;2.63;;
4806;SDS011;2417;52.482;13.432;2022-09-09T09:56:46;6.70;;;2.20;;
4806;SDS011;2417;52.482;13.432;2022-09-09T09:59:24;6.87;;;1.90;;
4806;SDS011;2417;52.482;13.432;2022-09-09T10:02:20;4.90;;;2.33;;
4806;SDS011;2417;52.482;13.432;2022-09-09T10:05:00;6.33;;;2.40;;
4806;SDS011;2417;52.482;13.432;2022-09-09T10:07:29;6.77;;;1.83;;
4806;SDS011;2417;52.482;13.432;2022-09-09T10:09:59;4.67;;;1.77;;
4806;SDS011;2417;52.482;13.432;2022-09-09T10:12:37;7.70;;;1.90;;
4806;SDS011;2417;52.482;13.432;2022-09-09T10:15:14;30.07;;;15.00;;
4806;SDS011;2417;52.482;13.432;2022-09-09T10:17:47;22.10;;;9.33;;
4806;SDS011;2417;52.482;13.432;2022-09-09T10:20:21;12.93;;;5.93;;
4806;SDS011;2417;52.482;13.432;2022-09-09T10:22:51;18.33;;;5.40;;
4806;SDS011;2417;52.482;13.432;2022-09-09T10:30:44;8.27;;;2.60;;
4806;SDS011;2417;52.482;13.432;2022-09-09T10:33:16;9.23;;;2.37;;
4806;SDS011;2417;52.482;13.432;2022-09-09T10:35:50;8.57;;;1.80;;
4806;SDS011;2417;52.482;13.432;2022-09-09T10:38:20;12.20;;;2.50;;
4806;SDS011;2417;52.482;13.432;2022-09-09T10:41:03;7.73;;;3.10;;
4806;SDS011;2417;52.482;13.432;2022-09-09T10:43:46;17.43;;;2.07;;
4806;SDS011;2417;52.482;13.432;2022-09-09T10:46:29;6.30;;;2.50;;
4806;SDS011;2417;52.482;13.432;2022-09-09T10:49:06;6.90;;;2.17;;
4806;SDS011;2417;52.482;13.432;2022-09-09T10:51:36;6.63;;;2.00;;
4806;SDS011;2417;52.482;13.432;2022-09-09T10:54:12;6.70;;;2.17;;
4806;SDS011;2417;52.482;13.432;2022-09-09T10:56:42;9.80;;;2.23;;
4806;SDS011;2417;52.482;13.432;2022-09-09T10:59:12;10.40;;;2.47;;
4806;SDS011;2417;52.482;13.432;2022-09-09T11:01:45;8.53;;;2.57;;
4806;SDS011;2417;52.482;13.432;2022-09-09T11:04:16;5.97;;;2.60;;
4806;SDS011;2417;52.482;13.432;2022-09-09T11:06:47;8.10;;;3.30;;
4806;SDS011;2417;52.482;13.432;2022-09-09T11:09:19;7.83;;;2.30;;
4806;SDS011;2417;52.482;13.432;2022-09-09T11:11:49;5.97;;;2.10;;
4806;SDS011;2417;52.482;13.432;2022-09-09T11:14:22;6.97;;;1.83;;
4806;SDS011;2417;52.482;13.432;2022-09-09T11:16:53;5.40;;;1.90;;
4806;SDS011;2417;52.482;13.432;2022-09-09T11:19:25;7.37;;;2.73;;
4806;SDS011;2417;52.482;13.432;2022-09-09T11:21:54;7.10;;;1.97;;
4806;SDS011;2417;52.482;13.432;2022-09-09T11:24:25;6.60;;;2.00;;
4806;SDS011;2417;52.482;13.432;2022-09-09T11:26:57;6.20;;;2.40;;
4806;SDS011;2417;52.482;13.432;2022-09-09T11:29:31;7.37;;;3.40;;
4806;SDS011;2417;52.482;13.432;2022-09-09T11:32:09;4.50;;;1.50;;
4806;SDS011;2417;52.482;13.432;2022-09-09T11:34:46;5.67;;;1.37;;
4806;SDS011;2417;52.482;13.432;2022-09-09T11:37:17;7.43;;;2.00;;
4806;SDS011;2417;52.482;13.432;2022-09-09T11:39:56;11.13;;;1.70;;
4806;SDS011;2417;52.482;13.432;2022-09-09T11:42:31;8.20;;;2.40;;
4806;SDS011;2417;52.482;13.432;2022-09-09T11:45:08;5.43;;;1.83;;
4806;SDS011;2417;52.482;13.432;2022-09-09T11:47:37;11.93;;;2.07;;
4806;SDS011;2417;52.482;13.432;2022-09-09T11:50:09;6.07;;;2.10;;
4806;SDS011;2417;52.482;13.432;2022-09-09T11:52:39;7.47;;;1.80;;
4806;SDS011;2417;52.482;13.432;2022-09-09T11:55:09;5.57;;;1.90;;
4806;SDS011;2417;52.482;13.432;2022-09-09T11:57:38;6.90;;;1.70;;
4806;SDS011;2417;52.482;13.432;2022-09-09T12:00:06;5.57;;;1.60;;
4806;SDS011;2417;52.482;13.432;2022-09-09T12:02:47;10.57;;;1.33;;
4806;SDS011;2417;52.482;13.432;2022-09-09T12:05:15;5.87;;;1.57;;
4806;SDS011;2417;52.482;13.432;2022-09-09T12:07:47;4.47;;;1.60;;
4806;SDS011;2417;52.482;13.432;2022-09-09T12:10:19;5.43;;;2.17;;
4806;SDS011;2417;52.482;13.432;2022-09-09T12:12:48;8.67;;;1.97;;
4806;SDS011;2417;52.482;13.432;2022-09-09T12:15:17;5.93;;;1.60;;
4806;SDS011;2417;52.482;13.432;2022-09-09T12:17:49;5.47;;;2.07;;
4806;SDS011;2417;52.482;13.432;2022-09-09T12:20:19;9.07;;;2.17;;
4806;SDS011;2417;52.482;13.432;2022-09-09T12:22:50;9.03;;;1.70;;
4806;SDS011;2417;52.482;13.432;2022-09-09T12:25:23;8.10;;;2.63;;
4806;SDS011;2417;52.482;13.432;2022-09-09T12:27:58;6.00;;;1.80;;
4806;SDS011;2417;52.482;13.432;2022-09-09T12:30:29;5.40;;;1.70;;
4806;SDS011;2417;52.482;13.432;2022-09-09T12:33:02;5.50;;;1.13;;
4806;SDS011;2417;52.482;13.432;2022-09-09T12:35:36;5.83;;;2.20;;
4806;SDS011;2417;52.482;13.432;2022-09-09T12:38:04;5.90;;;1.83;;
4806;SDS011;2417;52.482;13.432;2022-09-09T12:40:37;5.00;;;2.00;;
4806;SDS011;2417;52.482;13.432;2022-09-09T12:43:16;11.10;;;2.77;;
4806;SDS011;2417;52.482;13.432;2022-09-09T12:45:44;6.20;;;1.80;;
4806;SDS011;2417;52.482;13.432;2022-09-09T12:48:14;8.90;;;3.17;;
4806;SDS011;2417;52.482;13.432;2022-09-09T12:50:46;4.60;;;1.60;;
4806;SDS011;2417;52.482;13.432;2022-09-09T12:53:16;9.90;;;2.33;;
4806;SDS011;2417;52.482;13.432;2022-09-09T12:55:52;12.13;;;2.93;;
4806;SDS011;2417;52.482;13.432;2022-09-09T12:58:21;4.17;;;1.30;;
4806;SDS011;2417;52.482;13.432;2022-09-09T13:00:50;6.40;;;2.03;;
4806;SDS011;2417;52.482;13.432;2022-09-09T13:03:20;5.30;;;1.20;;
4806;SDS011;2417;52.482;13.432;2022-09-09T13:05:48;8.00;;;2.60;;
4806;SDS011;2417;52.482;13.432;2022-09-09T13:08:17;5.87;;;1.33;;
4806;SDS011;2417;52.482;13.432;2022-09-09T13:10:47;6.40;;;1.63;;
4806;SDS011;2417;52.482;13.432;2022-09-09T13:13:28;6.87;;;1.50;;
4806;SDS011;2417;52.482;13.432;2022-09-09T13:15:57;7.97;;;1.87;;
4806;SDS011;2417;52.482;13.432;2022-09-09T13:18:28;7.27;;;1.30;;
4806;SDS011;2417;52.482;13.432;2022-09-09T13:20:57;4.50;;;1.50;;
4806;SDS011;2417;52.482;13.432;2022-09-09T13:23:26;6.70;;;2.27;;
4806;SDS011;2417;52.482;13.432;2022-09-09T13:25:56;5.43;;;1.60;;
4806;SDS011;2417;52.482;13.432;2022-09-09T13:28:25;4.67;;;1.70;;
4806;SDS011;2417;52.482;13.432;2022-09-09T13:30:59;6.53;;;2.07;;
4806;SDS011;2417;52.482;13.432;2022-09-09T13:33:31;6.83;;;1.60;;
4806;SDS011;2417;52.482;13.432;2022-09-09T13:36:00;8.33;;;1.50;;
4806;SDS011;2417;52.482;13.432;2022-09-09T13:38:31;8.83;;;1.70;;
4806;SDS011;2417;52.482;13.432;2022-09-09T13:41:00;11.53;;;2.30;;
4806;SDS011;2417;52.482;13.432;2022-09-09T13:43:30;7.80;;;2.00;;
4806;SDS011;2417;52.482;13.432;2022-09-09T13:45:59;6.90;;;2.20;;
4806;SDS011;2417;52.482;13.432;2022-09-09T13:48:27;6.33;;;2.00;;
4806;SDS011;2417;52.482;13.432;2022-09-09T13:50:58;7.27;;;2.03;;
4806;SDS011;2417;52.482;13.432;2022-09-09T13:53:26;6.80;;;1.50;;
4806;SDS011;2417;52.482;13.432;2022-09-09T13:55:54;5.40;;;1.50;;
4806;SDS011;2417;52.482;13.432;2022-09-09T13:58:23;4.10;;;1.10;;
4806;SDS011;2417;52.482;13.432;2022-09-09T14:00:51;7.07;;;1.80;;
4806;SDS011;2417;52.482;13.432;2022-09-09T14:03:20;7.17;;;2.57;;
4806;SDS011;2417;52.482;13.432;2022-09-09T14:05:48;7.20;;;1.60;;
4806;SDS011;2417;52.482;13.432;2022-09-09T14:08:21;7.87;;;2.27;;
4806;SDS011;2417;52.482;13.432;2022-09-09T14:10:50;9.30;;;2.97;;
4806;SDS011;2417;52.482;13.432;2022-09-09T14:13:18;7.00;;;1.70;;
4806;SDS011;2417;52.482;13.432;2022-09-09T14:15:48;6.10;;;2.03;;
4806;SDS011;2417;52.482;13.432;2022-09-09T14:18:16;8.37;;;2.00;;
4806;SDS011;2417;52.482;13.432;2022-09-09T14:20:44;5.77;;;1.80;;
4806;SDS011;2417;52.482;13.432;2022-09-09T14:23:12;7.70;;;2.10;;
4806;SDS011;2417;52.482;13.432;2022-09-09T14:25:42;9.30;;;2.37;;
4806;SDS011;2417;52.482;13.432;2022-09-09T14:28:10;7.93;;;1.70;;
4806;SDS011;2417;52.482;13.432;2022-09-09T14:30:39;6.63;;;2.33;;
4806;SDS011;2417;52.482;13.432;2022-09-09T14:33:07;8.57;;;1.73;;
4806;SDS011;2417;52.482;13.432;2022-09-09T14:35:35;6.67;;;2.20;;
4806;SDS011;2417;52.482;13.432;2022-09-09T14:38:03;6.93;;;1.90;;
4806;SDS011;2417;52.482;13.432;2022-09-09T14:40:31;9.20;;;1.70;;
4806;SDS011;2417;52.482;13.432;2022-09-09T14:43:02;6.27;;;1.30;;
4806;SDS011;2417;52.482;13.432;2022-09-09T14:45:30;8.80;;;2.00;;
4806;SDS011;2417;52.482;13.432;2022-09-09T14:47:58;5.00;;;1.67;;
4806;SDS011;2417;52.482;13.432;2022-09-09T14:50:25;9.67;;;1.90;;
4806;SDS011;2417;52.482;13.432;2022-09-09T14:52:53;6.47;;;1.40;;
4806;SDS011;2417;52.482;13.432;2022-09-09T14:55:21;7.20;;;2.43;;
4806;SDS011;2417;52.482;13.432;2022-09-09T14:57:49;8.03;;;1.77;;
4806;SDS011;2417;52.482;13.432;2022-09-09T15:00:18;9.30;;;2.50;;
4806;SDS011;2417;52.482;13.432;2022-09-09T15:02:46;6.17;;;1.93;;
4806;SDS011;2417;52.482;13.432;2022-09-09T15:05:14;6.00;;;1.43;;
4806;SDS011;2417;52.482;13.432;2022-09-09T15:07:43;8.50;;;1.93;;
4806;SDS011;2417;52.482;13.432;2022-09-09T15:10:11;5.90;;;1.90;;
4806;SDS011;2417;52.482;13.432;2022-09-09T15:12:39;7.90;;;2.00;;
4806;SDS011;2417;52.482;13.432;2022-09-09T15:15:08;6.40;;;2.20;;
4806;SDS011;2417;52.482;13.432;2022-09-09T15:17:37;6.60;;;1.90;;
4806;SDS011;2417;52.482;13.432;2022-09-09T15:20:06;6.10;;;1.70;;
4806;SDS011;2417;52.482;13.432;2022-09-09T15:22:34;15.53;;;2.33;;